IBE6174 MROC-KMIA
Flight info
| Callsign | IBE6174 |
|---|---|
| Flight time | N/A |
| Altitude | 33000 |
| Route | NANJ3R RADON UB767 GCM DCT IKBIX SNDBR3 |
| Aircraft | A319/M-SDE3FGHIRWY/LB1 |
Departure
| Time | N/A |
|---|---|
| Airport | Juan Santamaría International Airport (MROC) |
Arrival
| Time | 2026-05-06 19:18 |
|---|---|
| Airport | Miami International Airport (KMIA) |
| Time | Latitude | Longitude | Altitude | Speed | Heading |
|---|---|---|---|---|---|
| 2026-05-06 18:43 | 22.58816 | -81.27591 | 33055 ft | 443 kts | 360° |
| 2026-05-06 18:44 | 22.61893 | -81.27498 | 33049 ft | 443 kts | 360° |
| 2026-05-06 18:44 | 22.68051 | -81.27318 | 33048 ft | 443 kts | 360° |
| 2026-05-06 18:45 | 22.74211 | -81.27141 | 33052 ft | 443 kts | 360° |
| 2026-05-06 18:45 | 22.80372 | -81.26953 | 33053 ft | 443 kts | 360° |
| 2026-05-06 18:46 | 22.86532 | -81.26760 | 33064 ft | 443 kts | 360° |
| 2026-05-06 18:46 | 22.92690 | -81.26579 | 33079 ft | 443 kts | 359° |
| 2026-05-06 18:47 | 22.98851 | -81.26391 | 33083 ft | 443 kts | 359° |
| 2026-05-06 18:47 | 23.05012 | -81.26203 | 33081 ft | 443 kts | 359° |
| 2026-05-06 18:48 | 23.11173 | -81.26017 | 33077 ft | 443 kts | 359° |
| 2026-05-06 18:48 | 23.17293 | -81.25832 | 33081 ft | 443 kts | 359° |
| 2026-05-06 18:49 | 23.23455 | -81.25649 | 33080 ft | 443 kts | 359° |
| 2026-05-06 18:49 | 23.29617 | -81.25471 | 33080 ft | 443 kts | 359° |
| 2026-05-06 18:50 | 23.35777 | -81.25286 | 33079 ft | 443 kts | 359° |
| 2026-05-06 18:50 | 23.41938 | -81.25096 | 33082 ft | 443 kts | 359° |
| 2026-05-06 18:51 | 23.48099 | -81.24908 | 33084 ft | 443 kts | 359° |
| 2026-05-06 18:51 | 23.54258 | -81.24722 | 33093 ft | 443 kts | 359° |
| 2026-05-06 18:52 | 23.60403 | -81.24541 | 33086 ft | 443 kts | 359° |
| 2026-05-06 18:52 | 23.66560 | -81.24353 | 33090 ft | 443 kts | 359° |
| 2026-05-06 18:53 | 23.72713 | -81.24158 | 33086 ft | 442 kts | 359° |
| 2026-05-06 18:53 | 23.78869 | -81.23973 | 33091 ft | 442 kts | 359° |
| 2026-05-06 18:54 | 23.85022 | -81.23788 | 33096 ft | 442 kts | 358° |
| 2026-05-06 18:54 | 23.91174 | -81.23597 | 33091 ft | 442 kts | 358° |
| 2026-05-06 18:55 | 23.97325 | -81.23410 | 33087 ft | 442 kts | 358° |
| 2026-05-06 18:55 | 24.03470 | -81.22840 | 33086 ft | 445 kts | 4° |
| 2026-05-06 18:56 | 24.09607 | -81.21953 | 33079 ft | 445 kts | 4° |
| 2026-05-06 18:56 | 24.15742 | -81.21072 | 33087 ft | 445 kts | 4° |
| 2026-05-06 18:57 | 24.21883 | -81.20188 | 33085 ft | 445 kts | 4° |
| 2026-05-06 18:57 | 24.28024 | -81.19305 | 33084 ft | 445 kts | 4° |
| 2026-05-06 18:58 | 24.34122 | -81.18422 | 33082 ft | 445 kts | 4° |
| 2026-05-06 18:58 | 24.40266 | -81.17538 | 32942 ft | 446 kts | 4° |
| 2026-05-06 18:58 | 24.43342 | -81.17094 | 32689 ft | 446 kts | 4° |
| 2026-05-06 18:59 | 24.46421 | -81.16647 | 32443 ft | 446 kts | 4° |
| 2026-05-06 18:59 | 24.49503 | -81.16200 | 32198 ft | 447 kts | 4° |
| 2026-05-06 18:59 | 24.52592 | -81.15757 | 31957 ft | 448 kts | 4° |
| 2026-05-06 18:59 | 24.55685 | -81.15313 | 31715 ft | 449 kts | 4° |
| 2026-05-06 19:00 | 24.58784 | -81.14866 | 31476 ft | 450 kts | 4° |
| 2026-05-06 19:00 | 24.61889 | -81.14449 | 30806 ft | 451 kts | 4° |
| 2026-05-06 19:00 | 24.65037 | -81.14090 | 29618 ft | 459 kts | 3° |
| 2026-05-06 19:00 | 24.67154 | -81.13873 | 28769 ft | 463 kts | 3° |
| 2026-05-06 19:01 | 24.71438 | -81.13459 | 27619 ft | 456 kts | 3° |
| 2026-05-06 19:01 | 24.74564 | -81.13151 | 26900 ft | 446 kts | 3° |
| 2026-05-06 19:01 | 24.77618 | -81.12838 | 26186 ft | 436 kts | 3° |
| 2026-05-06 19:01 | 24.80614 | -81.12521 | 25500 ft | 428 kts | 4° |
| 2026-05-06 19:02 | 24.83527 | -81.12205 | 25287 ft | 413 kts | 4° |
| 2026-05-06 19:02 | 24.86321 | -81.11710 | 25031 ft | 404 kts | 12° |
| 2026-05-06 19:02 | 24.88917 | -81.10688 | 24629 ft | 401 kts | 21° |
| 2026-05-06 19:02 | 24.91457 | -81.09428 | 24052 ft | 401 kts | 21° |
| 2026-05-06 19:03 | 24.93986 | -81.08173 | 23644 ft | 396 kts | 21° |
| 2026-05-06 19:03 | 24.96481 | -81.06934 | 23045 ft | 391 kts | 21° |
| 2026-05-06 19:03 | 24.98944 | -81.05716 | 22243 ft | 386 kts | 21° |
| 2026-05-06 19:03 | 25.01377 | -81.04519 | 21624 ft | 380 kts | 21° |
| 2026-05-06 19:04 | 25.03782 | -81.03336 | 21047 ft | 376 kts | 22° |
| 2026-05-06 19:04 | 25.06153 | -81.02168 | 20486 ft | 371 kts | 21° |
| 2026-05-06 19:04 | 25.08497 | -81.01011 | 19926 ft | 368 kts | 22° |
| 2026-05-06 19:04 | 25.10826 | -80.99863 | 19376 ft | 365 kts | 22° |
| 2026-05-06 19:05 | 25.13144 | -80.98719 | 18828 ft | 366 kts | 22° |
| 2026-05-06 19:05 | 25.15460 | -80.97575 | 18436 ft | 362 kts | 22° |
| 2026-05-06 19:05 | 25.17740 | -80.96445 | 17826 ft | 357 kts | 22° |
| 2026-05-06 19:05 | 25.19997 | -80.95326 | 17117 ft | 355 kts | 23° |
| 2026-05-06 19:06 | 25.22235 | -80.94218 | 16526 ft | 349 kts | 23° |
| 2026-05-06 19:06 | 25.24433 | -80.93130 | 15998 ft | 344 kts | 23° |
| 2026-05-06 19:06 | 25.26604 | -80.92053 | 15483 ft | 340 kts | 24° |
| 2026-05-06 19:06 | 25.28750 | -80.90987 | 14979 ft | 338 kts | 24° |
| 2026-05-06 19:07 | 25.30897 | -80.89919 | 14462 ft | 339 kts | 24° |
| 2026-05-06 19:07 | 25.32320 | -80.89213 | 14149 ft | 338 kts | 24° |
| 2026-05-06 19:07 | 25.35143 | -80.87816 | 13479 ft | 334 kts | 24° |
| 2026-05-06 19:07 | 25.37256 | -80.86769 | 12915 ft | 333 kts | 24° |
| 2026-05-06 19:08 | 25.39338 | -80.85737 | 12700 ft | 321 kts | 24° |
| 2026-05-06 19:08 | 25.41337 | -80.84783 | 12569 ft | 305 kts | 22° |
| 2026-05-06 19:08 | 25.43255 | -80.83898 | 12299 ft | 294 kts | 22° |
| 2026-05-06 19:08 | 25.45136 | -80.83048 | 12048 ft | 290 kts | 21° |
| 2026-05-06 19:09 | 25.47026 | -80.82283 | 11814 ft | 289 kts | 19° |
| 2026-05-06 19:09 | 25.48936 | -80.81573 | 11506 ft | 289 kts | 18° |
| 2026-05-06 19:09 | 25.50840 | -80.80884 | 11126 ft | 288 kts | 18° |
| 2026-05-06 19:09 | 25.52746 | -80.80191 | 10733 ft | 288 kts | 18° |
| 2026-05-06 19:10 | 25.54653 | -80.79487 | 10323 ft | 289 kts | 18° |
| 2026-05-06 19:10 | 25.56563 | -80.78775 | 9934 ft | 290 kts | 18° |
| 2026-05-06 19:10 | 25.58474 | -80.78058 | 9503 ft | 290 kts | 18° |
| 2026-05-06 19:10 | 25.60377 | -80.77342 | 9115 ft | 288 kts | 19° |
| 2026-05-06 19:11 | 25.62273 | -80.76627 | 8727 ft | 286 kts | 19° |
| 2026-05-06 19:11 | 25.64081 | -80.75739 | 8331 ft | 285 kts | 32° |
| 2026-05-06 19:11 | 25.65586 | -80.74329 | 7936 ft | 284 kts | 49° |
| 2026-05-06 19:11 | 25.66785 | -80.72601 | 7552 ft | 282 kts | 53° |
| 2026-05-06 19:12 | 25.67965 | -80.70867 | 7149 ft | 282 kts | 53° |
| 2026-05-06 19:12 | 25.69148 | -80.69139 | 6759 ft | 280 kts | 53° |
| 2026-05-06 19:12 | 25.70326 | -80.67421 | 6366 ft | 279 kts | 53° |
| 2026-05-06 19:12 | 25.71498 | -80.65712 | 5969 ft | 277 kts | 53° |
| 2026-05-06 19:13 | 25.72644 | -80.64039 | 5587 ft | 275 kts | 53° |
| 2026-05-06 19:13 | 25.73796 | -80.62357 | 5218 ft | 273 kts | 53° |
| 2026-05-06 19:13 | 25.74936 | -80.60692 | 4848 ft | 270 kts | 54° |
| 2026-05-06 19:13 | 25.76081 | -80.59017 | 4462 ft | 267 kts | 54° |
| 2026-05-06 19:14 | 25.77126 | -80.57323 | 4101 ft | 266 kts | 65° |
| 2026-05-06 19:14 | 25.77597 | -80.55348 | 3803 ft | 264 kts | 87° |
| 2026-05-06 19:14 | 25.77682 | -80.53352 | 3593 ft | 255 kts | 88° |
| 2026-05-06 19:14 | 25.77764 | -80.51414 | 3378 ft | 247 kts | 88° |
| 2026-05-06 19:15 | 25.77845 | -80.49543 | 3162 ft | 240 kts | 88° |
| 2026-05-06 19:15 | 25.77922 | -80.47739 | 2873 ft | 236 kts | 88° |
| 2026-05-06 19:15 | 25.77998 | -80.45927 | 2570 ft | 234 kts | 88° |
| 2026-05-06 19:15 | 25.78074 | -80.44133 | 2266 ft | 231 kts | 88° |
| 2026-05-06 19:16 | 25.78149 | -80.42384 | 1962 ft | 221 kts | 89° |
| 2026-05-06 19:16 | 25.78220 | -80.40712 | 1683 ft | 211 kts | 88° |
| 2026-05-06 19:16 | 25.78287 | -80.39128 | 1412 ft | 200 kts | 88° |
| 2026-05-06 19:16 | 25.78350 | -80.37664 | 1180 ft | 181 kts | 88° |
| 2026-05-06 19:17 | 25.78406 | -80.36325 | 962 ft | 167 kts | 88° |
| 2026-05-06 19:17 | 25.78458 | -80.35107 | 764 ft | 152 kts | 89° |
| 2026-05-06 19:17 | 25.78505 | -80.34000 | 563 ft | 140 kts | 89° |
| 2026-05-06 19:17 | 25.78548 | -80.32944 | 383 ft | 136 kts | 91° |
| 2026-05-06 19:18 | 25.78592 | -80.31922 | 223 ft | 131 kts | 90° |
| 2026-05-06 19:18 | 25.78633 | -80.30931 | 48 ft | 128 kts | 90° |
| 2026-05-06 19:18 | 25.78670 | -80.30017 | 19 ft | 95 kts | 87° |
| 2026-05-06 19:18 | 25.78689 | -80.29589 | 20 ft | 36 kts | 88° |
| 2026-05-06 19:19 | 25.78707 | -80.29325 | 22 ft | 26 kts | 78° |
| 2026-05-06 19:19 | 25.78787 | -80.29169 | 20 ft | 21 kts | 46° |
| 2026-05-06 19:19 | 25.78828 | -80.29008 | 21 ft | 21 kts | 79° |
| 2026-05-06 19:19 | 25.78861 | -80.28871 | 20 ft | 17 kts | 76° |
| 2026-05-06 19:20 | 25.78868 | -80.28723 | 18 ft | 20 kts | 86° |
| 2026-05-06 19:20 | 25.78877 | -80.28573 | 21 ft | 19 kts | 86° |
| 2026-05-06 19:20 | 25.78881 | -80.28440 | 23 ft | 16 kts | 87° |
| 2026-05-06 19:20 | 25.78887 | -80.28298 | 22 ft | 21 kts | 87° |
| 2026-05-06 19:21 | 25.78897 | -80.28140 | 24 ft | 20 kts | 84° |
| 2026-05-06 19:21 | 25.78906 | -80.28052 | 26 ft | 14 kts | 82° |
| 2026-05-06 19:21 | 25.78941 | -80.27948 | 26 ft | 13 kts | 89° |
| 2026-05-06 19:21 | 25.78959 | -80.27841 | 24 ft | 12 kts | 34° |
| 2026-05-06 19:22 | 25.79035 | -80.27805 | 25 ft | 11 kts | 21° |
| 2026-05-06 19:22 | 25.79095 | -80.27836 | 27 ft | 10 kts | 299° |
| 2026-05-06 19:22 | 25.79105 | -80.27856 | 27 ft | 0 kts | 297° |